Date,TemperatureHighF,TemperatureAvgF,TemperatureLowF,DewpointHighF,DewpointAvgF,DewpointLowF,HumidityHigh,HumidityAvg,HumidityLow,PressureMaxIn,PressureMinIn,WindSpeedMaxMPH,WindSpeedAvgMPH,GustSpeedMaxMPH,PrecipitationSumIn
2013-1-27,36.2,35.9,35.8,35.4,35.1,35.0,97,97,97,30.02,30.01,1,0,0,0.19
2013-1-28,36.0,34.5,33.1,35.4,33.9,32.6,98,98,97,30.08,30.01,1,0,1,1.30
2013-1-29,41.5,40.1,36.3,41.2,39.8,36.0,99,99,99,30.36,30.20,1,0,3,1.00
2013-1-30,46.5,43.6,41.0,46.2,43.3,40.7,100,99,99,30.41,30.35,2,0,5,0.50
2013-1-31,45.8,44.4,43.3,45.5,44.2,43.0,100,99,97,30.41,30.32,3,0,5,0.23
2013-2-1,50.1,43.5,35.8,47.3,42.6,35.5,100,97,82,30.44,30.36,3,0,4,0.01
2013-2-2,48.5,37.9,32.0,44.5,37.2,31.8,100,98,85,30.42,30.28,2,0,4,0.00
2013-2-3,45.0,41.0,36.2,44.7,40.8,35.9,100,99,96,30.33,30.23,2,0,4,0.18
2013-2-4,48.3,44.3,42.2,45.0,42.7,41.4,100,94,83,30.23,29.89,3,1,5,0.00
2013-2-5,48.4,45.6,43.5,43.3,42.0,40.8,93,87,77,29.94,29.83,7,4,12,0.01
2013-2-6,46.9,44.3,42.3,41.2,40.3,38.5,94,86,73,30.05,29.80,6,3,10,0.06
2013-2-7,45.9,40.5,32.3,41.2,37.7,31.8,98,90,79,30.22,29.82,6,2,11,0.18
2013-2-8,43.0,36.1,29.6,39.1,34.8,29.1,99,95,83,30.33,30.22,2,0,3,0.00
2013-2-9,41.9,38.9,37.1,40.9,38.3,36.7,99,98,94,30.37,30.29,1,0,2,0.06
2013-2-10,46.9,38.1,30.8,41.5,35.0,-99.9,99,91,71,30.40,30.35,2,0,4,0.02
2013-2-11,41.5,39.5,37.4,41.0,39.0,36.7,99,98,95,30.39,30.35,2,0,3,0.16
2013-2-12,46.6,43.6,40.3,45.3,43.0,40.1,100,98,93,30.44,30.29,3,1,6,0.01
2013-2-13,46.3,43.2,41.3,44.7,42.4,40.6,100,97,90,30.53,30.31,2,0,3,0.09
2013-2-14,47.2,43.1,40.6,45.2,42.4,40.2,100,97,88,30.59,30.51,3,0,4,0.15
2013-2-15,54.9,43.6,36.5,48.6,41.8,36.2,100,94,76,30.58,30.19,2,0,4,0.00
2013-2-16,46.0,41.4,37.2,45.2,40.9,36.8,100,98,93,30.21,30.15,2,0,3,0.32
2013-2-17,42.4,39.0,34.3,40.7,38.3,34.0,99,97,89,30.27,30.14,2,0,5,0.81
2013-2-18,44.0,37.9,32.9,39.3,35.5,32.7,100,92,78,30.14,29.79,4,1,7,0.01
2013-2-19,50.2,39.6,33.1,39.7,35.9,32.4,98,87,59,30.03,29.78,2,1,5,0.00
2013-2-20,43.1,37.1,32.3,40.1,36.0,31.8,99,96,83,30.07,30.02,5,1,6,0.03
2013-2-21,41.1,38.7,36.0,40.3,38.1,35.0,99,98,93,30.09,30.03,4,1,8,0.29
2013-2-22,42.9,40.2,36.9,42.1,39.1,35.5,99,96,89,30.06,29.69,8,3,14,0.36
2013-2-23,47.2,39.5,35.3,44.0,37.7,34.7,100,94,77,30.40,29.91,3,1,7,0.18
2013-2-24,45.0,41.5,36.4,38.9,37.4,35.9,98,86,73,30.40,29.95,7,3,12,0.02
2013-2-25,45.2,41.3,39.3,39.7,38.1,36.0,98,89,72,30.32,29.90,6,2,9,0.31
2013-2-26,45.6,41.3,34.6,37.8,34.8,33.0,97,79,62,30.37,30.20,6,3,11,0.00
2013-2-27,49.2,42.8,38.0,41.6,38.6,34.9,98,86,58,30.33,30.22,4,1,7,0.02
2013-2-28,51.1,44.3,39.8,49.8,43.0,37.8,99,95,87,30.32,30.20,6,2,11,0.39
2013-3-1,55.7,53.2,50.9,50.3,49.7,48.5,96,88,81,30.36,30.28,7,5,11,0.01
2013-3-2,55.0,48.1,38.2,49.5,44.2,37.2,97,87,75,30.28,30.06,7,3,12,0.31
2013-3-3,46.4,39.4,31.5,40.3,35.8,30.5,99,88,60,30.34,30.20,3,1,4,0.00
2013-3-4,51.9,40.5,29.7,40.2,31.4,25.3,98,73,38,30.34,29.98,5,1,11,0.00
2013-3-5,52.1,44.9,39.1,39.4,31.2,25.1,94,61,40,29.98,29.75,4,2,7,0.00
2013-3-6,41.2,38.7,35.3,40.4,37.9,34.3,98,97,94,29.92,29.61,3,1,4,0.58
2013-3-7,44.5,38.3,33.5,42.8,37.8,33.2,99,98,92,30.13,29.92,2,1,4,0.18
2013-3-8,50.3,38.3,30.8,44.7,36.1,30.6,100,92,73,30.27,30.10,2,1,4,0.01
2013-3-9,51.3,37.2,29.9,41.1,34.8,29.4,99,92,65,30.53,30.27,2,0,2,0.00
2013-3-10,44.7,39.8,33.9,40.9,37.7,33.1,98,92,78,30.52,30.46,3,0,4,0.00
2013-3-11,45.6,40.3,35.7,43.1,39.1,35.0,99,96,86,30.48,30.17,2,1,4,0.03
2013-3-12,50.3,47.8,44.6,49.0,46.6,42.1,98,96,89,30.18,30.06,5,3,9,0.68
2013-3-13,51.4,49.5,48.3,50.6,48.5,47.5,98,96,92,30.21,30.10,5,3,10,0.31
2013-3-14,52.1,50.1,46.9,50.5,48.4,45.2,98,94,88,30.16,30.04,5,3,8,0.08
2013-3-15,58.0,50.8,47.0,50.9,47.9,45.5,99,90,73,30.23,30.15,5,2,8,0.02
2013-3-16,47.8,43.6,38.0,46.9,42.8,37.5,99,97,88,30.15,29.90,5,1,7,0.81
2013-3-17,46.2,41.3,37.4,40.7,37.0,34.5,96,85,68,30.21,29.98,3,1,7,0.02
2013-3-18,50.3,41.3,34.8,41.4,36.0,28.4,99,83,45,30.28,30.11,4,2,8,0.08
2013-3-19,52.0,42.8,33.4,40.5,33.4,30.7,95,72,45,30.27,29.62,8,3,12,0.01
2013-3-20,51.7,45.3,38.9,48.2,41.1,30.8,97,86,70,30.01,29.38,11,4,19,0.23
2013-3-21,45.4,38.4,33.9,39.2,35.3,29.8,98,89,68,30.22,30.02,3,1,6,0.16
2013-3-22,46.6,37.1,30.2,36.6,32.9,28.9,99,86,54,30.41,30.21,4,1,7,0.02
2013-3-23,49.4,37.8,29.7,35.2,30.8,27.9,97,78,46,30.43,30.34,4,1,7,0.00
2013-3-24,54.8,41.3,31.0,38.0,31.9,28.2,94,73,37,30.34,30.16,5,1,9,0.00
2013-3-25,59.3,45.1,34.1,39.7,34.2,27.9,93,70,34,30.17,29.97,4,1,7,0.00
2013-3-26,60.0,45.9,36.0,44.0,38.6,34.5,96,78,47,30.04,29.99,4,1,5,0.00
2013-3-27,55.8,47.9,40.4,46.0,42.4,38.5,96,82,63,30.02,29.96,3,1,5,0.00
2013-3-28,61.7,48.6,40.0,48.7,43.7,38.9,98,84,60,30.17,30.02,4,1,7,0.00
2013-3-29,61.9,50.8,40.4,50.8,45.4,39.6,98,83,59,30.28,30.18,4,1,7,0.00
2013-3-30,64.2,49.4,37.9,51.0,44.2,37.1,99,84,58,30.29,30.11,2,1,4,0.00
2013-3-31,68.1,51.7,38.9,50.3,43.9,38.1,98,78,46,30.11,29.93,2,1,4,0.00
2013-4-1,58.7,48.8,40.7,50.0,45.4,39.6,98,89,72,30.17,29.98,5,1,7,0.00
2013-4-2,52.7,49.6,45.0,48.3,46.4,43.8,97,89,79,30.22,30.17,4,1,7,0.00
2013-4-3,61.1,50.9,43.9,50.7,46.5,43.1,98,86,63,30.21,29.98,3,1,5,0.00
2013-4-4,54.6,51.3,46.6,53.1,49.2,45.1,97,93,79,29.98,29.64,7,2,12,0.27
2013-4-5,56.4,51.7,48.5,51.0,48.5,45.2,98,89,74,29.87,29.72,7,4,13,0.26
2013-4-6,53.9,48.2,45.7,46.8,43.9,41.0,94,85,65,29.92,29.70,7,3,18,0.16
2013-4-7,45.8,41.9,38.6,43.0,40.9,37.6,99,96,84,29.91,29.54,3,1,4,1.37
2013-4-8,51.5,44.2,41.5,47.0,43.1,41.0,99,96,81,30.29,29.91,2,1,4,0.11
2013-4-9,53.6,48.0,41.1,44.9,42.9,39.5,99,84,62,30.37,30.19,4,2,9,0.00
2013-4-10,53.2,49.3,43.2,48.9,45.0,41.1,97,85,70,30.27,29.92,7,3,14,0.17
2013-4-11,54.6,46.4,37.2,43.8,40.3,34.5,95,81,52,30.32,30.22,3,1,7,0.00
2013-4-12,45.9,40.2,36.0,41.0,38.3,34.7,97,93,74,30.22,29.71,6,2,9,0.41
2013-4-13,44.9,39.5,37.1,43.6,38.4,36.1,98,96,90,30.01,29.74,4,2,7,0.34
2013-4-14,50.4,41.7,36.4,45.3,39.5,35.9,99,92,69,30.04,29.94,3,1,4,0.15
2013-4-15,53.5,43.2,36.4,45.3,40.4,35.6,99,90,69,30.21,29.97,4,1,6,0.02
2013-4-16,55.4,42.6,32.4,48.2,39.3,31.9,99,89,63,30.39,30.21,3,1,6,0.15
2013-4-17,58.2,51.2,44.8,44.7,41.5,35.8,89,71,48,30.47,30.43,5,1,9,0.00
2013-4-18,47.4,45.1,42.7,46.3,43.5,41.6,98,94,84,30.47,30.22,4,1,7,0.53
2013-4-19,52.2,48.1,46.5,51.7,47.6,46.0,99,98,96,30.22,30.08,3,1,7,0.74
2013-4-20,50.7,46.7,44.9,48.1,45.9,44.6,99,97,87,30.30,30.21,3,0,4,0.16
2013-4-21,52.4,45.6,38.2,48.0,43.5,37.4,99,92,73,30.40,30.25,3,1,6,0.14
2013-4-22,58.2,45.2,33.3,44.0,37.2,32.8,99,77,44,30.56,30.40,4,1,7,0.00
2013-4-23,59.3,43.9,33.5,43.9,37.8,31.4,95,81,46,30.46,30.28,3,1,7,0.00
2013-4-24,66.5,50.9,37.0,46.6,40.8,35.3,98,73,33,30.35,30.09,4,1,7,0.00
2013-4-25,68.4,53.7,39.5,50.8,43.7,37.5,93,71,42,30.17,30.07,4,1,7,0.00
2013-4-26,65.6,52.9,42.2,54.4,47.0,41.4,98,82,57,30.27,30.17,4,1,8,0.00
2013-4-27,54.6,49.9,46.8,48.8,46.0,40.8,98,87,60,30.22,30.16,4,1,9,0.26
2013-4-28,52.9,48.0,45.7,49.4,45.9,43.4,98,93,79,30.24,29.95,7,1,17,0.06
2013-4-29,53.9,47.1,41.4,45.8,39.1,33.0,97,76,49,30.14,29.94,4,2,7,0.10
2013-4-30,53.0,44.9,36.5,40.5,35.5,30.9,91,72,45,30.48,30.38,3,0,4,0.41
2013-5-1,61.3,46.2,31.6,44.6,37.9,30.6,97,75,44,30.62,30.48,3,1,8,0.00
2013-5-2,65.2,47.3,39.6,47.9,31.4,-99.9,95,68,43,30.58,30.39,5,-4,8,0.00
2013-5-3,67.2,53.4,40.7,52.7,45.9,39.6,97,78,51,30.42,30.25,4,1,6,0.00
2013-5-4,74.0,58.3,43.7,54.4,47.3,42.6,97,70,39,30.27,30.03,4,1,5,0.00
2013-5-5,77.5,61.4,46.6,57.7,50.0,44.6,94,69,41,30.03,29.80,3,1,8,0.00
2013-5-6,81.8,65.3,51.0,58.0,51.4,45.6,90,65,35,29.87,29.78,4,1,7,0.00
2013-5-7,69.5,55.9,47.0,57.2,51.0,45.6,96,84,61,30.01,29.83,4,1,7,0.00
2013-5-8,63.1,53.6,47.4,55.2,50.7,46.6,98,90,74,30.17,30.01,3,1,5,0.00
2013-5-9,67.9,53.7,45.9,58.2,50.1,45.1,98,89,65,30.25,30.15,5,1,8,0.00
2013-5-10,74.0,58.6,45.4,59.7,52.1,44.6,98,81,53,30.23,30.14,3,1,6,0.00
2013-5-11,79.1,61.7,50.4,60.1,52.3,48.0,94,74,44,30.19,30.00,4,1,7,0.00
2013-5-12,67.6,60.0,54.9,60.6,56.3,51.0,98,88,67,30.10,30.01,5,1,11,0.29
2013-5-13,62.3,55.1,47.1,55.6,51.9,46.3,97,89,71,30.20,29.94,7,2,15,0.22
2013-5-14,63.2,52.0,43.4,50.4,45.0,39.9,98,79,48,30.25,30.15,4,1,7,0.00
2013-5-15,65.1,53.3,42.4,52.1,45.9,41.3,97,79,45,30.15,30.03,5,1,10,0.07
2013-5-16,66.9,56.5,49.5,58.2,52.5,48.1,98,87,67,30.04,29.89,3,1,5,0.03
2013-5-17,58.5,53.7,49.0,53.9,51.1,47.8,98,91,75,30.06,29.96,4,1,7,0.16
2013-5-18,59.4,54.3,50.4,51.9,49.8,46.3,98,85,62,30.30,30.06,4,1,7,0.01
2013-5-19,63.5,53.9,47.3,53.8,50.0,45.8,97,87,66,30.42,30.30,4,1,9,0.00
2013-5-20,64.5,52.8,42.6,54.4,48.2,41.8,99,85,64,30.38,29.93,4,1,6,0.00
2013-5-21,51.0,48.1,46.2,49.9,47.1,45.4,98,96,89,29.93,29.81,3,1,5,0.47
2013-5-22,49.1,47.2,45.0,48.2,46.2,44.2,98,96,92,29.97,29.87,4,1,6,0.15
2013-5-23,59.7,47.9,40.8,50.0,44.9,40.3,99,90,62,30.04,29.95,6,1,12,0.01
2013-5-24,60.5,51.2,41.1,50.5,45.8,40.3,99,83,58,30.07,30.00,4,1,6,0.00
2013-5-25,62.6,53.4,48.5,52.4,49.0,44.4,98,86,55,30.06,30.00,4,1,8,0.30
2013-5-26,62.2,54.1,49.2,55.6,51.5,48.5,98,91,69,30.01,29.97,4,0,8,0.12
2013-5-27,59.0,55.0,50.3,56.1,52.7,49.2,96,92,78,29.98,29.73,3,1,6,0.16
2013-5-28,61.7,55.8,51.5,53.0,50.6,47.3,93,83,62,29.89,29.78,5,2,12,0.04
2013-5-29,54.2,51.5,49.3,51.8,49.7,48.7,98,94,87,29.99,29.69,4,0,5,0.39
2013-5-30,59.1,52.0,47.5,53.4,49.9,46.9,98,93,78,30.26,29.99,3,1,7,0.64
2013-5-31,64.0,54.4,47.0,55.3,50.0,45.6,98,86,58,30.36,30.26,3,1,5,0.14
2013-6-1,67.6,55.9,46.3,56.0,50.4,44.9,97,83,52,30.27,30.08,3,1,5,0.00
2013-6-2,66.7,57.2,50.9,55.0,51.8,48.4,96,83,59,30.11,30.06,4,1,7,0.01
2013-6-3,68.8,57.6,47.1,57.5,51.9,46.0,98,83,61,30.14,30.09,5,1,7,0.00
2013-6-4,75.5,61.4,47.1,60.4,53.8,46.3,98,78,49,30.15,30.05,3,1,5,0.00
2013-6-5,72.1,59.3,49.8,61.1,54.2,46.8,96,84,57,30.12,30.06,4,1,7,0.00
2013-6-6,75.3,60.5,48.8,60.9,52.9,45.0,98,78,46,30.07,30.03,4,1,7,0.00
2013-6-7,65.4,57.1,50.0,54.2,49.4,42.6,90,76,59,30.19,30.04,4,1,6,0.00
2013-6-8,63.3,55.1,48.4,53.2,49.1,46.4,95,81,66,30.21,30.13,3,1,5,0.00
2013-6-9,64.4,55.0,48.7,50.6,48.1,44.5,93,79,54,30.14,30.07,5,1,13,0.00
2013-6-10,67.2,54.3,42.3,52.7,47.7,41.2,97,80,54,30.07,29.91,5,1,7,0.00
2013-6-11,63.2,54.1,48.7,54.3,49.4,45.5,97,85,54,30.11,29.96,5,1,7,0.15
2013-6-12,64.9,55.3,49.6,53.6,49.9,47.0,98,83,54,30.16,30.11,5,1,8,0.00
2013-6-13,66.7,56.6,50.1,53.5,50.7,48.2,96,82,54,30.24,30.16,3,1,6,0.00
2013-6-14,64.0,55.6,50.8,54.4,50.4,48.7,96,83,64,30.25,30.09,4,1,10,0.00
2013-6-15,73.5,60.2,46.5,59.9,53.8,45.7,98,81,56,30.09,29.93,3,1,9,0.00
2013-6-16,69.1,59.7,50.4,60.2,54.4,49.0,96,84,65,30.10,30.00,3,1,7,0.02
2013-6-17,73.9,60.8,48.3,57.8,53.1,47.2,98,78,40,30.11,29.91,5,1,10,0.07
2013-6-18,70.8,60.0,53.2,56.2,51.8,42.0,98,77,36,29.99,29.89,5,1,8,0.00
2013-6-19,65.4,57.1,50.6,54.7,51.6,48.9,96,83,61,30.02,29.93,4,1,7,0.01
2013-6-20,54.8,52.8,51.4,53.3,51.6,50.8,98,96,87,30.14,29.98,2,0,3,0.79
2013-6-21,64.1,56.2,51.4,58.7,53.8,50.9,99,92,67,30.19,30.13,2,0,3,0.07
2013-6-22,73.5,61.0,49.8,61.5,55.1,49.3,99,83,54,30.15,29.88,5,1,8,0.00
2013-6-23,68.9,62.1,54.1,63.8,58.8,53.0,98,89,74,29.88,29.60,1,0,3,0.01
2013-6-24,64.4,60.4,56.4,60.9,57.8,54.3,98,91,73,29.71,29.58,5,1,9,0.13
2013-6-25,71.6,61.0,55.4,61.6,56.5,53.2,98,86,58,29.86,29.68,5,2,11,0.28
2013-6-26,70.7,61.9,55.0,61.7,57.2,53.6,97,85,65,30.10,29.86,6,2,9,0.01
2013-6-27,70.4,63.2,57.6,64.2,60.4,56.8,98,91,77,30.22,30.06,3,1,5,0.17
2013-6-28,82.3,67.4,57.9,71.5,63.2,57.3,99,87,60,30.22,30.06,2,1,5,0.00
2013-6-29,79.3,69.0,60.5,68.7,63.4,59.6,97,83,62,30.11,30.01,4,1,7,0.00
2013-6-30,87.6,71.4,58.5,74.4,64.6,56.3,97,80,58,30.03,29.86,2,0,3,0.00
2013-7-1,81.3,67.6,58.8,68.9,61.3,56.4,95,81,63,30.05,29.92,4,1,6,0.00
2013-7-2,73.2,62.7,55.2,61.4,55.9,49.5,96,79,52,30.13,30.05,4,1,9,0.00
2013-7-3,74.0,60.7,51.7,58.4,53.3,48.8,96,78,48,30.17,30.08,3,1,8,0.00
2013-7-4,69.1,59.1,51.6,57.9,53.6,50.0,97,83,60,30.14,30.05,4,1,8,0.00
2013-7-5,72.0,59.5,49.5,59.7,54.6,48.7,98,85,61,30.06,29.97,3,1,7,0.00
2013-7-6,76.5,62.7,52.3,62.7,56.3,51.2,97,81,56,29.99,29.88,3,1,5,0.00
2013-7-7,76.5,64.0,53.5,61.1,56.1,51.4,95,77,51,29.96,29.89,4,1,7,0.00
2013-7-8,75.9,62.6,52.3,63.5,57.1,51.1,97,83,58,30.11,29.95,4,1,6,0.00
2013-7-9,78.1,63.5,51.6,64.9,57.3,50.6,98,82,59,30.12,30.03,4,1,6,0.00
2013-7-10,69.2,59.0,51.5,59.7,53.4,48.9,97,83,63,30.08,29.99,4,1,8,0.00
2013-7-11,66.8,58.1,49.7,54.4,50.0,46.5,91,76,49,30.10,30.02,4,1,5,0.00
2013-7-12,67.1,56.6,46.8,56.8,50.6,45.2,96,81,61,30.13,30.03,5,1,7,0.00
2013-7-13,73.8,59.5,47.1,57.4,51.2,46.0,97,76,48,30.23,30.13,3,1,7,0.00
2013-7-14,76.6,61.3,47.4,57.9,51.4,45.8,96,73,43,30.15,30.03,3,1,6,0.00
2013-7-15,77.5,63.4,49.4,59.2,53.0,48.0,97,72,42,30.07,29.91,4,1,8,0.00
2013-7-16,84.5,67.7,53.1,65.2,56.4,50.9,94,70,37,29.93,29.82,2,1,4,0.00
2013-7-17,71.3,64.3,59.5,60.1,58.7,55.3,97,83,67,30.20,29.87,5,2,9,0.05
2013-7-18,73.5,62.9,54.9,60.9,56.6,53.4,95,81,62,30.24,30.15,3,1,8,0.00
2013-7-19,74.1,59.7,51.5,63.2,55.9,50.7,99,88,66,30.19,30.07,3,1,6,0.00
2013-7-20,72.8,59.2,52.8,62.5,55.9,51.7,98,89,68,30.11,29.98,4,1,6,0.00
2013-7-21,73.2,59.5,51.1,63.1,56.3,50.6,99,90,68,30.00,29.92,4,1,8,0.00
2013-7-22,75.0,61.4,53.2,63.7,57.4,52.3,99,88,64,30.08,29.96,4,1,11,0.00
2013-7-23,82.2,63.0,51.8,65.7,56.9,51.3,99,83,54,30.09,29.99,3,1,5,0.00
2013-7-24,78.3,62.4,52.5,63.3,55.4,50.6,94,79,56,30.08,30.02,3,1,6,0.00
2013-7-25,78.0,61.2,50.8,61.2,54.8,49.5,98,81,50,30.13,30.06,3,1,8,0.00
2013-7-26,78.4,63.0,49.7,63.4,53.6,47.9,97,74,47,30.17,30.10,4,1,6,0.00
2013-7-27,74.8,61.3,48.5,58.9,53.1,47.4,97,77,48,30.17,30.01,4,1,8,0.00
2013-7-28,71.4,59.9,49.6,58.7,54.1,48.5,97,82,58,30.03,29.96,5,1,9,0.00
2013-7-29,72.2,60.5,51.4,60.1,55.3,50.6,98,84,60,30.03,29.97,4,1,9,0.00
2013-7-30,74.4,61.4,51.0,61.9,56.4,49.9,98,85,60,30.15,30.02,6,1,6,0.00
2013-7-31,70.6,59.8,51.9,62.1,56.8,51.1,99,91,71,30.14,30.00,4,1,5,0.01
2013-8-1,64.5,59.3,54.9,59.2,56.5,53.6,97,90,82,30.08,30.03,2,1,6,0.00
2013-8-2,60.6,58.4,56.7,58.6,57.1,55.8,99,96,86,30.15,30.07,2,0,5,0.48
2013-8-3,71.9,62.3,56.4,63.9,59.5,55.3,99,91,73,30.15,30.07,2,0,4,0.00
2013-8-4,76.8,63.0,53.8,67.2,59.1,53.2,99,88,66,30.08,29.96,2,0,6,0.00
2013-8-5,78.8,64.0,53.3,66.1,58.3,52.5,98,83,55,30.03,29.95,3,1,5,0.00
2013-8-6,78.4,63.5,52.2,61.9,55.8,50.7,97,78,49,30.02,29.93,3,1,5,0.00
2013-8-7,79.4,64.0,52.7,62.8,56.5,51.6,96,79,51,30.02,29.96,4,1,6,0.00
2013-8-8,76.0,64.4,55.9,63.6,57.9,53.7,97,81,60,30.05,29.97,3,1,7,0.00
2013-8-9,79.8,65.0,53.5,66.2,58.4,52.4,97,81,56,29.98,29.84,3,1,5,0.00
2013-8-10,77.6,64.9,58.2,66.1,60.3,56.1,98,86,65,30.03,29.88,4,1,8,0.05
2013-8-11,70.0,60.7,54.6,63.9,57.6,53.5,98,90,72,30.08,30.00,3,0,5,0.13
2013-8-12,74.7,61.8,53.5,63.5,57.0,52.7,98,85,62,30.09,30.03,3,1,8,0.00
2013-8-13,76.6,63.1,53.5,62.8,57.1,52.4,98,82,57,30.12,29.94,3,1,6,0.00
2013-8-14,81.5,64.5,53.6,66.6,59.5,52.8,99,86,48,29.98,29.91,3,0,6,0.06
2013-8-15,69.4,64.9,61.9,65.6,63.3,61.3,99,95,86,30.01,29.93,3,0,4,0.04
2013-8-16,81.2,67.8,60.2,66.3,61.5,53.5,99,82,40,30.02,29.96,4,1,7,0.00
2013-8-17,73.6,64.3,58.0,64.2,59.3,56.0,97,84,67,30.08,30.01,4,1,7,0.00
2013-8-18,75.4,63.5,56.0,61.0,57.3,54.6,96,82,58,30.13,30.08,5,1,9,0.00
2013-8-19,75.8,63.4,55.4,61.8,56.2,50.8,93,79,57,30.14,30.08,4,1,7,0.00
2013-8-20,73.8,61.1,50.6,60.6,53.7,49.6,97,79,50,30.19,30.09,4,1,6,0.00
2013-8-21,77.3,61.4,48.9,61.6,54.0,47.4,97,79,50,30.11,29.96,3,1,8,0.00
2013-8-22,80.5,65.7,53.5,65.1,58.1,51.7,96,78,51,29.97,29.81,2,0,4,0.00
2013-8-23,72.2,63.4,55.7,61.4,57.7,54.3,96,82,64,29.90,29.83,4,1,7,0.00
2013-8-24,70.0,61.0,55.4,61.5,57.7,53.1,98,89,66,29.94,29.88,2,0,3,0.08
2013-8-25,71.3,60.0,49.8,61.3,55.9,49.0,99,87,65,29.97,29.88,3,0,5,0.00
2013-8-26,73.7,64.0,57.7,60.7,57.8,52.1,96,81,51,29.96,29.86,5,1,10,0.01
2013-8-27,79.1,66.3,58.4,64.8,59.4,57.0,97,79,53,29.97,29.81,4,1,8,0.02
2013-8-28,77.4,65.9,58.4,68.8,62.7,57.6,99,90,60,29.90,29.83,3,0,5,0.15
2013-8-29,73.6,65.5,61.6,66.6,63.4,60.7,99,93,75,30.00,29.87,4,1,10,0.15
2013-8-30,75.7,65.7,56.9,62.8,59.1,55.1,95,81,51,30.16,30.00,5,1,9,0.00
2013-8-31,77.0,62.5,52.1,64.9,57.6,51.6,99,86,63,30.10,29.85,2,0,8,0.00
2013-9-1,77.9,64.7,54.4,65.2,58.7,53.6,99,82,54,29.90,29.81,4,1,7,0.00
2013-9-2,79.0,64.6,55.7,64.1,58.9,54.9,98,83,55,29.95,29.87,4,0,4,0.00
2013-9-3,69.1,61.8,57.7,66.5,60.6,56.9,99,96,89,30.04,29.94,2,0,3,0.12
2013-9-4,68.8,61.3,56.1,64.3,59.8,55.8,99,95,80,30.07,30.01,2,0,3,0.01
2013-9-5,67.3,60.2,55.1,65.2,59.0,54.6,99,96,88,30.07,29.93,2,0,5,0.46
2013-9-6,69.3,62.0,59.1,64.7,61.1,58.8,99,97,81,30.12,29.96,2,0,3,0.55
2013-9-7,71.4,63.5,58.1,65.8,61.3,57.5,99,93,74,30.13,30.03,2,0,5,0.02
2013-9-8,75.4,62.5,54.6,67.2,59.7,54.3,100,91,69,30.12,30.04,3,0,7,0.00
2013-9-9,74.4,62.4,53.0,66.2,59.1,52.6,100,90,67,30.08,29.99,3,1,4,0.00
2013-9-11,72.0,66.3,63.4,67.3,63.4,60.7,93,90,85,29.94,29.89,1,1,2,0.00
2013-9-12,75.8,64.3,55.8,66.2,60.0,54.9,98,87,67,30.01,29.92,3,0,5,0.00
2013-9-13,63.2,59.5,55.7,61.0,58.6,55.1,99,97,93,29.98,29.89,2,0,4,0.00
2013-9-14,65.2,61.4,58.4,62.2,60.1,57.8,99,95,88,29.90,29.75,1,0,2,0.00
2013-9-15,62.9,59.5,55.5,61.4,58.9,55.0,99,98,93,29.82,29.72,2,0,4,0.20
2013-9-16,62.5,59.5,55.1,61.3,58.5,54.5,99,97,93,29.95,29.81,3,0,5,0.05
2013-9-17,60.6,56.2,53.2,56.5,54.3,52.2,99,94,83,29.96,29.88,3,0,4,0.01
2013-9-18,64.9,55.7,50.1,57.7,53.4,49.3,99,93,61,30.09,29.96,2,0,4,0.12
2013-9-19,77.0,59.3,46.2,61.2,52.0,45.7,99,80,41,30.07,29.78,3,0,5,0.00
2013-9-20,74.0,60.2,49.0,60.2,53.1,47.0,96,79,47,29.78,29.60,4,1,6,0.03
2013-9-21,67.2,58.8,53.2,59.0,55.3,52.0,98,89,61,29.73,29.66,3,0,5,0.01
2013-9-22,58.1,56.0,53.4,55.4,53.4,50.4,98,91,78,29.73,29.58,5,1,10,0.07
2013-9-23,59.0,54.6,50.6,55.1,52.3,50.1,98,92,84,29.98,29.73,4,1,7,0.04
2013-9-24,60.5,52.0,47.6,54.3,50.1,47.1,99,93,70,29.98,29.86,2,0,4,0.17
2013-9-25,56.9,50.6,44.5,52.8,49.2,44.0,99,95,83,30.06,29.88,2,0,3,0.00
2013-9-26,59.8,48.7,41.3,52.6,46.4,41.0,100,93,73,30.16,30.05,4,0,7,0.00
2013-9-27,52.6,50.2,44.4,51.8,49.4,43.8,99,97,92,30.14,29.86,2,0,5,0.18
2013-9-28,58.3,53.8,49.2,57.8,53.1,48.4,99,97,94,29.86,29.34,8,2,13,1.06
2013-9-29,54.9,52.4,50.5,51.7,49.9,47.5,97,91,77,29.55,29.16,8,3,12,0.24
2013-9-30,55.5,51.2,48.3,52.0,48.7,46.0,95,91,84,29.92,29.38,4,2,11,0.12
2013-10-1,55.5,49.9,48.1,49.2,46.6,44.3,98,88,74,30.13,29.92,4,1,9,0.08
2013-10-2,51.0,48.7,46.3,49.4,48.0,45.8,99,97,92,30.19,30.08,3,0,4,0.20
2013-10-3,57.3,48.2,42.4,51.5,46.3,41.9,99,94,72,30.48,30.19,3,0,5,0.00
2013-10-4,61.9,49.8,38.8,54.4,46.4,38.5,99,89,60,30.51,30.37,4,0,5,0.01
2013-10-5,67.2,54.8,47.9,57.9,50.1,46.1,98,86,49,30.38,30.15,2,0,4,0.00
2013-10-6,75.1,58.3,45.3,55.6,46.7,38.8,99,71,27,30.15,29.88,7,2,14,0.00
2013-10-7,57.4,53.2,49.9,53.4,51.0,49.2,98,92,80,30.02,29.87,4,1,10,0.44
2013-10-8,55.7,49.2,41.2,51.3,47.3,40.6,99,93,75,30.10,29.97,2,0,7,0.17
2013-10-9,57.4,45.7,37.3,48.5,42.6,36.8,99,90,64,30.16,29.98,2,0,4,0.01
2013-10-10,54.9,48.5,43.2,50.8,46.4,42.6,98,93,79,30.09,29.96,2,0,4,0.00
2013-10-11,54.6,47.5,40.2,50.9,45.9,39.7,99,94,83,30.17,30.09,3,0,5,0.00
2013-10-12,55.5,48.6,42.9,52.3,47.5,42.4,99,96,85,30.24,30.09,2,0,4,0.21
2013-10-13,48.6,43.8,41.8,47.3,43.5,41.4,100,99,94,30.35,30.24,1,0,1,0.00
2013-10-14,57.3,49.4,42.3,51.3,46.4,41.8,99,90,73,30.45,30.39,2,0,3,0.00
2013-10-15,60.0,48.0,39.8,53.4,45.8,39.5,99,93,69,30.42,30.20,2,0,3,0.00
2013-10-16,54.8,47.4,43.0,50.9,46.4,42.5,99,97,86,30.23,30.17,2,0,4,0.00
2013-10-17,58.9,49.3,43.4,53.1,47.5,42.9,99,94,78,30.30,30.23,2,0,4,0.00
2013-10-18,57.9,46.2,37.8,53.4,44.8,37.4,99,95,82,30.27,30.17,2,0,3,0.00
2013-10-19,48.9,43.9,37.8,47.8,43.4,37.3,100,98,94,30.23,30.17,1,0,2,0.00
2013-10-20,49.2,46.7,45.0,47.8,46.1,44.7,99,98,94,30.24,30.18,1,0,2,0.00
2013-10-21,51.5,47.3,45.0,50.1,46.8,44.7,100,98,94,30.20,30.13,1,0,3,0.01
2013-10-22,51.1,47.2,44.0,50.6,47.0,44.0,100,99,97,30.15,30.06,1,0,2,0.00
2013-10-23,59.7,46.5,36.9,56.4,45.6,36.6,100,97,82,30.08,30.00,3,0,4,0.00
2013-10-24,53.9,45.6,39.2,51.2,45.1,38.9,100,98,90,30.15,30.04,2,0,4,0.01
2013-10-25,51.6,47.5,45.2,50.0,47.0,45.2,100,98,92,30.34,30.15,1,0,2,0.02
2013-10-26,52.3,48.6,45.0,48.6,47.1,44.5,99,95,84,30.35,30.21,1,0,2,0.00
2013-10-27,55.1,48.9,44.4,52.1,47.2,42.2,100,94,80,30.21,29.92,4,1,7,0.23
2013-10-28,59.9,49.8,37.8,44.2,38.5,31.9,96,68,39,29.98,29.90,6,1,10,0.00
2013-10-29,55.2,42.5,32.9,44.6,37.7,31.9,97,85,46,30.06,29.97,3,0,5,0.00
2013-10-30,54.3,44.9,34.1,47.3,41.0,33.3,99,87,65,30.16,30.06,4,1,8,0.00
2013-10-31,50.3,48.7,46.5,50.0,48.0,44.1,99,97,84,30.28,30.11,3,0,8,0.29
2013-11-1,55.5,51.3,48.6,53.1,50.0,48.3,100,95,88,30.29,29.85,2,0,2,0.02
2013-11-2,51.7,47.1,42.1,50.3,45.9,41.6,99,96,88,29.89,29.44,9,2,22,0.55
2013-11-3,49.6,40.5,32.3,45.2,39.4,31.8,99,96,81,30.14,29.89,3,0,4,0.00
2013-11-4,46.9,38.8,30.7,40.0,35.6,30.5,99,89,72,30.23,30.09,3,0,4,0.02
2013-11-5,46.5,43.2,40.0,46.2,42.6,38.7,99,98,94,30.29,30.05,3,0,8,0.00
2013-11-6,50.8,45.4,41.1,46.8,43.6,40.8,100,94,80,30.35,30.04,4,1,8,0.00
2013-11-7,49.2,47.5,45.8,48.9,46.7,44.8,99,97,92,30.03,29.71,7,2,16,0.00
2013-11-8,51.7,45.6,41.1,48.3,44.8,40.6,100,97,84,30.18,29.99,1,0,3,0.00
2013-11-9,50.5,43.6,38.0,47.2,42.3,37.7,100,95,76,30.18,30.09,2,0,2,0.00
2013-11-10,47.2,44.4,43.0,46.9,44.2,42.7,100,99,98,30.18,30.13,0,0,1,0.00
2013-11-11,58.7,48.4,41.6,51.8,46.2,41.6,100,93,67,30.19,30.02,2,0,4,0.00
2013-11-12,55.1,52.2,47.0,52.1,49.2,43.4,97,90,69,30.36,30.04,4,1,7,0.01
2013-11-13,54.8,51.2,48.0,51.3,49.6,47.5,99,94,85,30.44,30.33,3,0,4,0.02
2013-11-14,47.9,45.3,40.7,47.2,44.9,40.4,99,98,97,30.33,30.08,0,0,1,0.05
2013-11-15,45.4,42.9,41.3,45.4,42.6,41.0,100,99,95,30.09,29.35,3,1,9,0.80
2013-11-16,42.5,39.9,38.0,42.0,39.6,37.7,100,99,98,29.79,29.36,3,0,4,0.70
2013-11-17,47.2,42.7,37.4,46.8,42.4,37.1,100,99,97,29.91,29.79,2,0,5,0.08
2013-11-18,49.6,47.4,45.4,49.3,47.3,45.4,100,100,98,29.91,29.55,4,1,7,0.36
2013-11-19,49.9,40.5,31.2,49.6,38.5,28.6,100,93,72,30.10,29.55,3,0,6,0.19
2013-11-20,41.1,31.8,27.5,34.1,29.2,26.3,98,91,65,30.54,30.10,2,0,4,0.00
2013-11-21,40.4,30.3,25.4,32.6,27.6,24.7,97,90,62,30.70,30.55,1,0,3,0.01
2013-11-22,43.8,31.9,26.1,35.3,29.5,25.0,98,91,65,30.69,30.49,2,0,4,0.00
2013-11-23,43.2,33.9,28.7,39.0,32.6,28.2,99,95,81,30.49,30.24,1,0,2,0.01
2013-11-24,46.3,35.7,30.6,41.1,34.6,30.3,99,96,79,30.29,30.20,2,0,4,0.00
2013-11-25,51.6,38.5,32.3,44.6,36.8,32.1,100,94,68,30.34,30.28,2,0,4,0.00
2013-11-26,51.5,39.5,31.3,42.3,36.9,31.1,99,91,60,30.29,30.13,3,0,4,0.01
2013-11-27,53.9,43.1,37.4,46.4,40.3,36.9,98,91,70,30.13,29.99,2,0,4,0.00
2013-11-28,52.9,41.2,35.1,43.4,38.6,34.8,99,91,56,30.20,30.05,2,0,4,0.00
2013-11-29,47.4,42.9,40.5,44.3,41.6,39.8,99,95,82,30.34,30.20,2,0,5,0.03
2013-11-30,47.9,45.8,44.7,47.3,45.1,43.8,99,97,95,30.34,30.09,3,1,6,0.13
2013-12-1,49.2,46.7,39.4,49.1,46.3,36.7,100,98,89,30.09,29.75,4,1,9,0.74
2013-12-2,44.1,37.0,32.8,39.0,35.5,32.3,99,94,77,30.08,29.78,4,1,9,0.06
2013-12-3,37.0,29.7,25.9,32.5,27.6,23.8,99,92,71,30.34,30.08,1,0,3,0.00
2013-12-4,36.4,27.7,22.8,26.0,22.7,17.9,92,82,48,30.39,30.33,2,0,5,0.01
2013-12-5,31.8,25.7,21.2,25.5,21.9,18.2,94,86,69,30.36,30.23,3,0,4,0.00
2013-12-6,32.0,26.1,21.5,20.4,10.3,3.3,89,52,38,30.29,30.19,5,2,11,0.00
2013-12-7,28.4,19.0,13.6,13.9,8.9,1.6,85,67,34,30.47,30.29,3,0,5,0.00
2013-12-8,31.1,22.0,13.8,21.3,15.9,10.4,90,78,55,30.60,30.46,3,0,3,0.00
2013-12-9,30.8,25.9,16.6,27.3,21.6,14.7,93,84,71,30.62,30.52,2,0,3,0.00
2013-12-10,37.3,32.5,29.3,33.1,30.7,27.3,97,93,84,30.52,30.45,2,0,3,0.00
2013-12-11,40.5,33.3,29.1,33.0,30.2,28.3,98,89,68,30.45,30.19,2,0,3,0.00
2013-12-12,44.0,38.7,31.0,41.1,35.9,29.7,98,90,74,30.19,30.06,6,2,8,0.04
2013-12-13,44.4,42.6,39.1,44.4,42.3,38.6,100,99,96,30.44,30.15,2,0,4,0.04
2013-12-14,47.3,44.9,41.3,45.1,43.7,41.0,100,96,89,30.45,30.32,5,2,8,0.03
2013-12-15,47.6,46.0,41.1,47.3,45.3,40.8,99,98,92,30.47,30.34,5,1,10,0.02
2013-12-16,49.5,39.8,33.2,46.5,39.5,32.9,100,99,84,30.52,30.29,1,0,2,0.01
2013-12-17,40.5,35.9,30.6,40.5,35.8,30.4,100,99,99,30.29,30.14,2,0,3,0.00
2013-12-18,44.3,37.7,29.3,41.4,36.6,28.7,100,96,76,30.19,30.05,4,0,5,0.04
2013-12-19,36.3,30.6,26.2,30.9,28.2,23.7,98,91,70,30.38,30.19,3,0,4,0.01
2013-12-20,35.9,32.6,29.7,35.9,32.1,28.6,100,98,90,30.23,29.75,4,1,7,0.20
2013-12-21,38.9,35.6,33.5,38.9,35.5,33.1,100,100,99,30.20,29.88,1,0,2,0.56
2013-12-22,45.4,41.5,36.4,45.4,41.5,36.4,100,100,100,30.32,30.20,2,0,4,0.59
2013-12-23,47.9,45.3,41.1,47.9,44.6,40.5,100,98,88,30.53,30.15,4,1,11,0.44
2013-12-24,45.5,39.3,31.9,41.9,38.3,31.6,100,96,83,30.64,30.54,2,0,3,0.00
2013-12-25,42.2,35.9,30.0,39.1,34.9,29.8,100,96,84,30.57,30.43,1,0,2,0.00
2013-12-26,48.2,39.3,34.5,41.5,37.7,34.1,99,94,76,30.43,30.23,2,0,3,0.00
2013-12-27,43.0,38.9,34.0,43.0,38.8,33.7,100,100,99,30.39,30.12,3,0,4,0.06
2013-12-28,44.6,41.2,38.3,43.9,41.0,38.0,100,99,93,30.55,30.38,1,0,1,0.00
2013-12-29,41.3,39.2,37.3,41.0,39.0,37.3,100,99,98,30.50,30.34,2,0,4,0.01
2013-12-30,43.4,40.0,36.5,42.8,39.8,36.5,100,99,96,30.34,30.14,3,0,7,0.02
2013-12-31,44.2,42.7,40.2,43.9,42.5,39.8,100,99,98,30.40,30.22,3,0,5,0.04
2014-1-1,44.9,39.5,34.3,43.5,39.2,34.3,100,99,91,30.43,30.26,2,0,3,0.01
2014-1-2,46.9,43.2,40.4,44.8,42.6,39.9,100,98,90,30.26,29.92,3,1,8,0.59